Portland Hillsboro Airport
KHIO : now visible

Airfield :











YOU CAN JOIN US ON...

 
LOGIN :

Register | Disclaimer

   EN    FR    IT 

 









Legend :    VFR   Marginal VFR   IFR   Intensive IFR   Very Intensive IFR
Visi :
Ceiling :
>= 8 km
>= 3000ft
5 to 8 km
1000 to 3000 ft
1500m to 5 km
500 to 1000 ft
800 to 1500m
200 to 500 ft
< 800m
< 200 ft
Symbols :   Thunderstorms  Fog  Heavy snow  Heavy precipitations  Wind > 20 kt






- Airport Elevation : 208 ft


KHIO - Portland Hillsboro

CURRENT METAR :
  • 171253Z AUTO 00000KT 10SM SCT033 SCT042 OVC049 02/02 A3039 RMK AO2 RAB1157E13 SLP291 P0000 T00220017

EXPIRED METARs :
  • 171220Z AUTO 09003KT 10SM SCT026 BKN036 OVC050 03/02 A3039 RMK AO2 RAB1157E13 P0000 T00280022
  • 171205Z AUTO 36003KT 10SM -RA FEW020 BKN028 OVC034 02/02 A3038 RMK AO2 RAB1157 P0000 T00220017
  • 171153Z AUTO VRB03KT 10SM SCT028 BKN035 BKN042 02/02 A3038 RMK AO2 RAE1055UPB1055E05 SLP288 P0001 60002 70006 T00220017 10056 20011 51007
  • 171053Z AUTO 17004KT 9SM -RA BKN030 OVC035 03/02 A3038 RMK AO2 RAB35 SLP288 P0000 T00280022
  • 171002Z AUTO 35004KT 9SM FEW003 SCT050 BKN065 02/01 A3037 RMK AO2 T00170011

TAF KHIO
Valid from the 17 at 12:00 until the 18 at 12:00 UTC


171134Z 1712/1812 17004KT P6SM VCSH BKN028 OVC035
FM171330 00000KT 3SM BR SCT008 BKN015 BKN035
FM171800 VRB04KT 5SM BR SCT015 BKN050
FM180100 VRB05KT P6SM SCT030 BKN250
FM181000 VRB03KT P6SM SCT025 BKN100



MET'MAP, your aeronautical weather chart ! - Copyright ORBIFLY December 2007 - Disclaimer

ORBIFLY MET'MAP TEAM :

Programming & Development : Alexandra Zaïnal
Concept & original design : Baudouin d'Aumeries
Assistance for programming : Marc-Olivier Méhu
Technical & hardware support : Manuel Goepfert

Contact : metmap@orbifly.com




SOURCES & CREDITS :

   NOAA       Earth
Advisory